createdAt,value
2017-09-10T00:00:32.321Z,99.99
2017-09-10T00:01:31.992Z,99.99
2017-09-10T00:02:32.316Z,99.99
2017-09-10T00:03:32.329Z,99.99
2017-09-10T00:04:32.359Z,99.99
2017-09-10T00:05:32.085Z,99.99
2017-09-10T00:06:32.342Z,99.99
2017-09-10T00:07:32.319Z,99.99
2017-09-10T00:08:32.316Z,99.99
2017-09-10T00:09:31.987Z,99.99
2017-09-10T00:10:32.310Z,99.99
2017-09-10T00:11:32.393Z,99.99
2017-09-10T00:12:31.985Z,99.99
2017-09-10T00:13:32.314Z,99.99
2017-09-10T00:14:32.314Z,99.99
2017-09-10T00:15:32.298Z,99.99
2017-09-10T00:16:32.408Z,99.99
2017-09-10T00:17:31.977Z,99.99
2017-09-10T00:18:31.980Z,99.99
2017-09-10T00:19:31.976Z,99.99
2017-09-10T00:20:31.986Z,99.99
2017-09-10T00:21:32.303Z,99.99
2017-09-10T00:22:32.300Z,99.99
2017-09-10T00:23:31.978Z,99.99
2017-09-10T00:24:32.300Z,99.99
2017-09-10T00:25:32.297Z,99.99
2017-09-10T00:26:32.295Z,99.99
2017-09-10T00:27:32.306Z,99.99
2017-09-10T00:28:32.306Z,99.99
2017-09-10T00:29:32.310Z,99.99
2017-09-10T00:30:32.295Z,99.99
2017-09-10T00:31:31.971Z,99.99
2017-09-10T00:32:32.299Z,99.99
2017-09-10T00:33:32.303Z,99.99
2017-09-10T00:34:31.963Z,99.99
2017-09-10T00:35:32.308Z,99.99
2017-09-10T00:36:31.963Z,99.99
2017-09-10T00:37:32.278Z,99.99
2017-09-10T00:38:31.964Z,99.99
2017-09-10T00:39:32.304Z,99.99
2017-09-10T00:40:32.281Z,99.99
2017-09-10T00:41:32.352Z,99.99
2017-09-10T00:42:31.959Z,99.99
2017-09-10T00:43:32.283Z,99.99
2017-09-10T00:44:32.273Z,99.99
2017-09-10T00:45:32.288Z,99.99
2017-09-10T00:46:32.292Z,99.99
2017-09-10T00:47:32.271Z,99.99
2017-09-10T00:48:31.951Z,99.99
2017-09-10T00:49:32.264Z,99.99
2017-09-10T00:50:32.292Z,99.99
2017-09-10T00:51:32.265Z,99.99
2017-09-10T00:52:32.263Z,99.99
2017-09-10T00:53:31.950Z,99.99
2017-09-10T00:54:31.947Z,99.99
2017-09-10T00:55:32.285Z,99.99
2017-09-10T00:56:32.273Z,99.99
2017-09-10T00:57:32.281Z,99.99
2017-09-10T00:58:31.941Z,99.99
2017-09-10T00:59:32.266Z,99.99
2017-09-10T01:00:32.282Z,99.99
2017-09-10T01:01:32.284Z,99.99
2017-09-10T01:02:31.936Z,99.99
2017-09-10T01:03:31.934Z,99.99
2017-09-10T01:04:31.936Z,99.99
2017-09-10T01:05:32.252Z,99.99
2017-09-10T01:06:32.022Z,99.99
2017-09-10T01:07:32.280Z,99.99
2017-09-10T01:08:32.268Z,99.99
2017-09-10T01:09:31.927Z,99.99
2017-09-10T01:10:32.271Z,99.99
2017-09-10T01:11:32.251Z,99.99
2017-09-10T01:12:32.254Z,99.99
2017-09-10T01:13:31.929Z,99.99
2017-09-10T01:14:31.923Z,99.99
2017-09-10T01:15:31.963Z,99.99
2017-09-10T01:16:32.279Z,99.99
2017-09-10T01:17:31.918Z,99.99
2017-09-10T01:18:31.929Z,99.99
2017-09-10T01:19:32.246Z,99.99
2017-09-10T01:20:31.934Z,99.99
2017-09-10T01:21:31.918Z,99.99
2017-09-10T01:22:32.231Z,99.99
2017-09-10T01:23:32.245Z,99.99
2017-09-10T01:24:32.316Z,99.99
2017-09-10T01:25:32.297Z,99.99
2017-09-10T01:26:32.242Z,99.99
2017-09-10T01:27:32.277Z,99.99
2017-09-10T01:28:32.228Z,99.99
2017-09-10T01:29:31.935Z,99.99
2017-09-10T01:30:31.911Z,99.99
2017-09-10T01:31:31.909Z,99.99
2017-09-10T01:32:32.243Z,99.99
2017-09-10T01:33:32.262Z,99.99
2017-09-10T01:34:31.906Z,99.99
2017-09-10T01:35:32.243Z,99.99
2017-09-10T01:36:32.345Z,99.99
2017-09-10T01:37:32.221Z,99.99
2017-09-10T01:38:32.226Z,99.99
2017-09-10T01:39:32.231Z,99.99
2017-09-10T01:40:32.224Z,99.99
2017-09-10T01:41:32.226Z,99.99
2017-09-10T01:42:31.896Z,99.99
2017-09-10T01:43:32.223Z,99.99
2017-09-10T01:44:31.891Z,99.99
2017-09-10T01:45:31.902Z,99.99
2017-09-10T01:46:32.228Z,99.99
2017-09-10T01:47:32.220Z,99.99
2017-09-10T01:48:32.233Z,99.99
2017-09-10T01:49:31.892Z,99.99
2017-09-10T01:50:31.884Z,99.99
2017-09-10T01:51:31.888Z,99.99
2017-09-10T01:52:31.894Z,99.99
2017-09-10T01:53:32.207Z,99.99
2017-09-10T01:54:31.883Z,99.99
2017-09-10T01:55:31.885Z,99.99
2017-09-10T01:56:32.203Z,99.99
2017-09-10T01:57:31.888Z,99.99
2017-09-10T01:58:32.203Z,99.99
2017-09-10T01:59:32.226Z,99.99
2017-09-10T02:00:31.886Z,99.99
2017-09-10T02:01:32.330Z,99.99
2017-09-10T02:02:31.878Z,99.99
2017-09-10T02:03:31.877Z,99.99
2017-09-10T02:04:31.878Z,99.99
2017-09-10T02:05:31.877Z,99.99
2017-09-10T02:06:31.879Z,99.99
2017-09-10T02:07:32.197Z,99.99
2017-09-10T02:08:32.194Z,99.99
2017-09-10T02:09:32.200Z,99.99
2017-09-10T02:10:32.204Z,99.99
2017-09-10T02:11:32.208Z,99.99
2017-09-10T02:12:32.203Z,99.99
2017-09-10T02:13:32.236Z,99.99
2017-09-10T02:14:32.218Z,99.99
2017-09-10T02:15:32.444Z,99.99
2017-09-10T02:16:31.871Z,99.99
2017-09-10T02:17:31.867Z,99.99
2017-09-10T02:18:32.190Z,99.99
2017-09-10T02:19:32.185Z,99.99
2017-09-10T02:20:32.194Z,99.99
2017-09-10T02:21:32.196Z,99.99
2017-09-10T02:22:32.186Z,99.99
2017-09-10T02:23:31.862Z,99.99
2017-09-10T02:24:31.866Z,99.99
2017-09-10T02:25:32.224Z,99.99
2017-09-10T02:26:31.862Z,99.99
2017-09-10T02:27:32.182Z,99.99
2017-09-10T02:28:32.188Z,99.99
2017-09-10T02:29:31.857Z,99.99
2017-09-10T02:30:32.179Z,99.99
2017-09-10T02:31:31.908Z,99.99
2017-09-10T02:32:32.166Z,99.99
2017-09-10T02:33:32.188Z,99.99
2017-09-10T02:34:32.198Z,99.99
2017-09-10T02:35:31.851Z,99.99
2017-09-10T02:36:32.312Z,99.99
2017-09-10T02:37:31.849Z,99.99
2017-09-10T02:38:32.187Z,99.99
2017-09-10T02:39:32.167Z,99.99
2017-09-10T02:40:32.164Z,99.99
2017-09-10T02:41:32.236Z,99.99
2017-09-10T02:42:32.170Z,99.99
2017-09-10T02:43:31.852Z,99.99
2017-09-10T02:44:31.842Z,99.99
2017-09-10T02:45:32.165Z,99.99
2017-09-10T02:46:31.851Z,99.99
2017-09-10T02:47:31.842Z,99.99
2017-09-10T02:48:32.168Z,99.99
2017-09-10T02:49:32.167Z,99.99
2017-09-10T02:50:31.841Z,99.99
2017-09-10T02:51:32.150Z,99.99
2017-09-10T02:52:32.150Z,99.99
2017-09-10T02:53:32.152Z,99.99
2017-09-10T02:54:32.159Z,99.99
2017-09-10T02:55:31.840Z,99.99
2017-09-10T02:56:32.150Z,99.99
2017-09-10T02:57:32.173Z,99.99
2017-09-10T02:58:32.154Z,99.99
2017-09-10T02:59:31.834Z,99.99
2017-09-10T03:00:31.830Z,99.99
2017-09-10T03:01:32.146Z,99.99
2017-09-10T03:02:32.145Z,99.99
2017-09-10T03:03:32.140Z,99.99
2017-09-10T03:04:32.146Z,99.99
2017-09-10T03:05:32.162Z,99.99
2017-09-10T03:06:31.825Z,99.99
2017-09-10T03:07:32.139Z,99.99
2017-09-10T03:08:32.133Z,99.99
2017-09-10T03:09:32.135Z,99.99
2017-09-10T03:10:32.130Z,99.99
2017-09-10T03:11:31.901Z,99.99
2017-09-10T03:12:32.131Z,99.99
2017-09-10T03:13:32.132Z,99.99
2017-09-10T03:14:32.188Z,99.99
2017-09-10T03:15:32.133Z,99.99
2017-09-10T03:16:32.151Z,99.99
2017-09-10T03:17:32.134Z,99.99
2017-09-10T03:18:32.134Z,99.99
2017-09-10T03:19:32.127Z,99.99
2017-09-10T03:20:32.163Z,99.99
2017-09-10T03:21:31.816Z,99.99
2017-09-10T03:22:31.812Z,99.99
2017-09-10T03:23:31.814Z,99.99
2017-09-10T03:24:32.122Z,99.99
2017-09-10T03:25:32.173Z,99.99
2017-09-10T03:26:32.119Z,99.99
2017-09-10T03:27:32.167Z,99.99
2017-09-10T03:28:31.818Z,99.99
2017-09-10T03:29:31.819Z,99.99
2017-09-10T03:30:32.179Z,99.99
2017-09-10T03:31:31.808Z,99.99
2017-09-10T03:32:32.116Z,99.99
2017-09-10T03:33:31.808Z,99.99
2017-09-10T03:34:32.117Z,99.99
2017-09-10T03:35:32.117Z,99.99
2017-09-10T03:36:31.804Z,99.99
2017-09-10T03:37:32.114Z,99.99
2017-09-10T03:38:32.113Z,99.99
2017-09-10T03:39:32.112Z,99.99
2017-09-10T03:40:32.112Z,99.99
2017-09-10T03:41:32.112Z,99.99
2017-09-10T03:42:32.112Z,99.99
2017-09-10T03:43:31.801Z,99.99
2017-09-10T03:44:32.110Z,99.99
2017-09-10T03:45:32.111Z,99.99
2017-09-10T03:46:31.804Z,99.99
2017-09-10T03:47:32.109Z,99.99
2017-09-10T03:48:31.803Z,99.99
2017-09-10T03:49:32.115Z,99.99
2017-09-10T03:50:32.108Z,99.99
2017-09-10T03:51:31.796Z,99.99
2017-09-10T03:52:32.111Z,99.99
2017-09-10T03:53:32.103Z,99.99
2017-09-10T03:54:32.105Z,99.99
2017-09-10T03:55:32.113Z,99.99
2017-09-10T03:56:32.106Z,99.99
2017-09-10T03:57:31.796Z,99.99
2017-09-10T03:58:31.798Z,99.99
2017-09-10T03:59:32.100Z,99.99
2017-09-10T04:00:31.791Z,99.99
2017-09-10T04:01:32.105Z,99.99
2017-09-10T04:02:32.107Z,99.99
2017-09-10T04:03:31.789Z,99.99
2017-09-10T04:04:32.096Z,99.99
2017-09-10T04:05:31.793Z,99.99
2017-09-10T04:06:31.790Z,99.99
2017-09-10T04:07:31.791Z,99.99
2017-09-10T04:08:32.098Z,99.99
2017-09-10T04:09:32.096Z,99.99
2017-09-10T04:10:32.098Z,99.99
2017-09-10T04:11:32.097Z,99.99
2017-09-10T04:12:32.095Z,99.99
2017-09-10T04:13:32.092Z,99.99
2017-09-10T04:14:31.785Z,99.99
2017-09-10T04:15:32.091Z,99.99
2017-09-10T04:16:32.091Z,99.99
2017-09-10T04:17:31.781Z,99.99
2017-09-10T04:18:32.091Z,99.99
2017-09-10T04:19:31.780Z,99.99
2017-09-10T04:20:31.791Z,99.99
2017-09-10T04:21:31.789Z,99.99
2017-09-10T04:22:32.087Z,99.99
2017-09-10T04:23:32.089Z,99.99
2017-09-10T04:24:32.083Z,99.99
2017-09-10T04:25:32.086Z,99.99
2017-09-10T04:26:32.086Z,99.99
2017-09-10T04:27:31.775Z,99.99
2017-09-10T04:28:32.084Z,99.99
2017-09-10T04:29:32.081Z,99.99
2017-09-10T04:30:32.083Z,99.99
2017-09-10T04:31:32.079Z,99.99
2017-09-10T04:32:31.771Z,99.99
2017-09-10T04:33:32.081Z,99.99
2017-09-10T04:34:31.769Z,99.99
2017-09-10T04:35:32.076Z,99.99
2017-09-10T04:36:32.116Z,99.99
2017-09-10T04:37:32.075Z,99.99
2017-09-10T04:38:31.769Z,99.99
2017-09-10T04:39:32.076Z,99.99
2017-09-10T04:40:31.765Z,99.99
2017-09-10T04:41:32.074Z,99.99
2017-09-10T04:42:32.073Z,99.99
2017-09-10T04:43:32.073Z,99.99
2017-09-10T04:44:32.076Z,99.99
2017-09-10T04:45:32.073Z,99.99
2017-09-10T04:46:32.074Z,99.99
2017-09-10T04:47:32.069Z,99.99
2017-09-10T04:48:31.764Z,99.99
2017-09-10T04:49:32.071Z,99.99
2017-09-10T04:50:32.066Z,99.99
2017-09-10T04:51:32.069Z,99.99
2017-09-10T04:52:32.072Z,99.99
2017-09-10T04:53:32.071Z,99.99
2017-09-10T04:54:31.757Z,99.99
2017-09-10T04:55:31.757Z,99.99
2017-09-10T04:56:32.101Z,99.99
2017-09-10T04:57:32.065Z,99.99
2017-09-10T04:58:31.754Z,99.99
2017-09-10T04:59:32.063Z,99.99
2017-09-10T05:00:32.060Z,99.99
2017-09-10T05:01:31.750Z,99.99
2017-09-10T05:02:32.061Z,99.99
2017-09-10T05:03:32.098Z,99.99
2017-09-10T05:04:32.070Z,99.99
2017-09-10T05:05:31.750Z,99.99
2017-09-10T05:06:31.750Z,99.99
2017-09-10T05:07:31.748Z,99.99
2017-09-10T05:08:32.063Z,99.99
2017-09-10T05:09:31.753Z,99.99
2017-09-10T05:10:32.092Z,99.99
2017-09-10T05:11:31.772Z,99.99
2017-09-10T05:12:31.746Z,99.99
2017-09-10T05:13:31.744Z,99.99
2017-09-10T05:14:31.745Z,99.99
2017-09-10T05:15:32.051Z,99.99
2017-09-10T05:16:31.744Z,99.99
2017-09-10T05:17:31.747Z,99.99
2017-09-10T05:18:32.059Z,99.99
2017-09-10T05:19:31.743Z,99.99
2017-09-10T05:20:32.052Z,99.99
2017-09-10T05:21:32.051Z,99.99
2017-09-10T05:22:32.049Z,99.99
2017-09-10T05:23:32.055Z,99.99
2017-09-10T05:24:31.744Z,99.99
2017-09-10T05:25:32.050Z,99.99
2017-09-10T05:26:31.741Z,99.99
2017-09-10T05:27:32.049Z,99.99
2017-09-10T05:28:31.743Z,99.99
2017-09-10T05:29:32.046Z,99.99
2017-09-10T05:30:32.061Z,99.99
2017-09-10T05:31:32.047Z,99.99
2017-09-10T05:32:31.739Z,99.99
2017-09-10T05:33:32.046Z,99.99
2017-09-10T05:34:31.737Z,99.99
2017-09-10T05:35:32.055Z,99.99
2017-09-10T05:36:32.052Z,99.99
2017-09-10T05:37:32.044Z,99.99
2017-09-10T05:38:32.053Z,99.99
2017-09-10T05:39:32.043Z,99.99
2017-09-10T05:40:31.736Z,99.99
2017-09-10T05:41:31.736Z,99.99
2017-09-10T05:42:32.040Z,99.99
2017-09-10T05:43:32.040Z,99.99
2017-09-10T05:44:32.041Z,99.99
2017-09-10T05:45:31.735Z,99.99
2017-09-10T05:46:32.041Z,99.99
2017-09-10T05:47:32.039Z,99.99
2017-09-10T05:48:32.039Z,99.99
2017-09-10T05:49:32.038Z,99.99
2017-09-10T05:50:32.047Z,99.99
2017-09-10T05:51:32.037Z,99.99
2017-09-10T05:52:32.036Z,99.99
2017-09-10T05:53:32.041Z,99.99
2017-09-10T05:54:31.729Z,99.99
2017-09-10T05:55:32.036Z,99.99
2017-09-10T05:56:32.042Z,99.99
2017-09-10T05:57:32.040Z,99.99
2017-09-10T05:58:32.049Z,99.99
2017-09-10T05:59:32.034Z,99.99
2017-09-10T06:00:32.040Z,99.99
2017-09-10T06:01:32.042Z,99.99
2017-09-10T06:02:32.035Z,99.99
2017-09-10T06:03:32.034Z,99.99
2017-09-10T06:04:32.036Z,99.99
2017-09-10T06:05:32.042Z,99.99
2017-09-10T06:06:32.033Z,99.99
2017-09-10T06:07:32.043Z,99.99
2017-09-10T06:08:31.732Z,99.99
2017-09-10T06:09:31.733Z,99.99
2017-09-10T06:10:32.085Z,99.99
2017-09-10T06:11:31.723Z,99.99
2017-09-10T06:12:31.722Z,99.99
2017-09-10T06:13:32.032Z,99.99
2017-09-10T06:14:32.037Z,99.99
2017-09-10T06:15:32.030Z,99.99
2017-09-10T06:16:32.055Z,99.99
2017-09-10T06:17:31.724Z,99.99
2017-09-10T06:18:31.718Z,99.99
2017-09-10T06:19:32.029Z,99.99
2017-09-10T06:20:32.034Z,99.99
2017-09-10T06:21:31.717Z,99.99
2017-09-10T06:22:31.719Z,99.99
2017-09-10T06:23:31.715Z,99.99
2017-09-10T06:24:32.032Z,99.99
2017-09-10T06:25:31.714Z,99.99
2017-09-10T06:26:32.034Z,99.99
2017-09-10T06:27:32.036Z,99.99
2017-09-10T06:28:32.022Z,99.99
2017-09-10T06:29:32.022Z,99.99
2017-09-10T06:30:31.715Z,99.99
2017-09-10T06:31:31.712Z,99.99
2017-09-10T06:32:32.020Z,99.99
2017-09-10T06:33:32.021Z,99.99
2017-09-10T06:34:32.024Z,99.99
2017-09-10T06:35:32.020Z,99.99
2017-09-10T06:36:32.019Z,99.99
2017-09-10T06:37:31.714Z,99.99
2017-09-10T06:38:32.019Z,99.99
2017-09-10T06:39:31.711Z,99.99
2017-09-10T06:40:32.019Z,99.99
2017-09-10T06:41:31.713Z,99.99
2017-09-10T06:42:32.026Z,99.99
2017-09-10T06:43:32.020Z,99.72
2017-09-10T06:44:32.021Z,99.62
2017-09-10T06:45:32.022Z,99.91
2017-09-10T06:46:32.037Z,97.9
2017-09-10T06:47:32.023Z,96.84
2017-09-10T06:48:32.047Z,96.66
2017-09-10T06:49:32.026Z,97.85
2017-09-10T06:50:32.024Z,98.33
2017-09-10T06:51:32.023Z,99
2017-09-10T06:52:31.714Z,98.33
2017-09-10T06:53:32.020Z,98.19
2017-09-10T06:54:31.715Z,98.19
2017-09-10T06:55:32.021Z,98.09
2017-09-10T06:56:32.028Z,98.38
2017-09-10T06:57:32.024Z,98.86
2017-09-10T06:58:32.021Z,98.28
2017-09-10T06:59:32.024Z,98.19
2017-09-10T07:00:32.025Z,96.94
2017-09-10T07:01:31.736Z,96.18
2017-09-10T07:02:31.716Z,94.93
2017-09-10T07:03:32.027Z,95.22
2017-09-10T07:04:32.029Z,95.7
2017-09-10T07:05:32.027Z,96.84
2017-09-10T07:06:32.026Z,97.42
2017-09-10T07:07:32.028Z,96.75
2017-09-10T07:08:32.029Z,96.42
2017-09-10T07:09:31.719Z,96.89
2017-09-10T07:10:31.720Z,95.65
2017-09-10T07:11:32.033Z,95.27
2017-09-10T07:12:32.031Z,95.17
2017-09-10T07:13:32.051Z,94.69
2017-09-10T07:14:32.035Z,94.69
2017-09-10T07:15:32.031Z,95.17
2017-09-10T07:16:32.031Z,94.89
2017-09-10T07:17:32.036Z,94.21
2017-09-10T07:18:32.032Z,94.31
2017-09-10T07:19:31.723Z,94.98
2017-09-10T07:20:31.727Z,93.93
2017-09-10T07:21:32.034Z,94.12
2017-09-10T07:22:32.035Z,94.02
2017-09-10T07:23:32.036Z,93.54
2017-09-10T07:24:31.729Z,94.12
2017-09-10T07:25:32.036Z,93.83
2017-09-10T07:26:32.137Z,94.31
2017-09-10T07:27:32.041Z,93.64
2017-09-10T07:28:32.038Z,92.97
2017-09-10T07:29:32.041Z,92.87
2017-09-10T07:30:32.043Z,92.73
2017-09-10T07:31:32.042Z,92.63
2017-09-10T07:32:31.735Z,92.44
2017-09-10T07:33:31.734Z,92.06
2017-09-10T07:34:32.048Z,90.91
2017-09-10T07:35:32.053Z,91.29
2017-09-10T07:36:31.738Z,91.67
2017-09-10T07:37:32.052Z,91.72
2017-09-10T07:38:31.740Z,92.15
2017-09-10T07:39:31.743Z,92.25
2017-09-10T07:40:32.053Z,91.77
2017-09-10T07:41:32.098Z,91.86
2017-09-10T07:42:31.745Z,91.49
2017-09-10T07:43:32.052Z,91.19
2017-09-10T07:44:32.055Z,90.91
2017-09-10T07:45:32.052Z,91.19
2017-09-10T07:46:31.749Z,91.19
2017-09-10T07:47:32.059Z,91.1
2017-09-10T07:48:32.066Z,90.33
2017-09-10T07:49:32.061Z,89.86
2017-09-10T07:50:32.057Z,89.13
2017-09-10T07:51:31.757Z,88.7
2017-09-10T07:52:31.757Z,89.47
2017-09-10T07:53:32.067Z,90.23
2017-09-10T07:54:32.063Z,89.95
2017-09-10T07:55:32.065Z,89.28
2017-09-10T07:56:32.114Z,88.99
2017-09-10T07:57:32.068Z,89.37
2017-09-10T07:58:32.080Z,90.23
2017-09-10T07:59:31.763Z,90.81
2017-09-10T08:00:31.762Z,90.72
2017-09-10T08:01:31.763Z,90.62
2017-09-10T08:02:32.070Z,90.23
2017-09-10T08:03:32.071Z,89.95
2017-09-10T08:04:32.072Z,89.37
2017-09-10T08:05:32.084Z,89.37
2017-09-10T08:06:32.086Z,88.84
2017-09-10T08:07:32.078Z,88.56
2017-09-10T08:08:32.078Z,88.56
2017-09-10T08:09:32.089Z,86.83
2017-09-10T08:10:31.772Z,86.64
2017-09-10T08:11:31.783Z,85.58
2017-09-10T08:12:32.094Z,85.58
2017-09-10T08:13:32.099Z,85.78
2017-09-10T08:14:32.096Z,85.78
2017-09-10T08:15:31.782Z,85.72
2017-09-10T08:16:32.148Z,85.92
2017-09-10T08:17:31.783Z,86.4
2017-09-10T08:18:32.095Z,85.15
2017-09-10T08:19:31.783Z,85.77
2017-09-10T08:20:32.097Z,84.71
2017-09-10T08:21:31.858Z,84.61
2017-09-10T08:22:32.101Z,84.04
2017-09-10T08:23:31.789Z,82.12
2017-09-10T08:24:32.114Z,82.21
2017-09-10T08:25:32.108Z,82.46
2017-09-10T08:26:32.107Z,82.85
2017-09-10T08:27:32.109Z,83.23
2017-09-10T08:28:31.799Z,82.37
2017-09-10T08:29:31.802Z,81.51
2017-09-10T08:30:32.112Z,81.89
2017-09-10T08:31:32.119Z,82.08
2017-09-10T08:32:32.125Z,81.98
2017-09-10T08:33:31.809Z,82.08
2017-09-10T08:34:32.119Z,81.51
2017-09-10T08:35:31.819Z,82.18
2017-09-10T08:36:31.819Z,82.85
2017-09-10T08:37:32.126Z,82.23
2017-09-10T08:38:32.126Z,83.09
2017-09-10T08:39:31.823Z,83.29
2017-09-10T08:40:32.130Z,83.76
2017-09-10T08:41:32.146Z,83.95
2017-09-10T08:42:31.829Z,83.67
2017-09-10T08:43:32.131Z,83.58
2017-09-10T08:44:31.828Z,83
2017-09-10T08:45:32.137Z,83.67
2017-09-10T08:46:32.147Z,83.14
2017-09-10T08:47:32.139Z,82.85
2017-09-10T08:48:32.151Z,83.04
2017-09-10T08:49:32.150Z,83.42
2017-09-10T08:50:32.153Z,83.61
2017-09-10T08:51:32.151Z,82.37
2017-09-10T08:52:31.842Z,81.98
2017-09-10T08:53:32.162Z,82.18
2017-09-10T08:54:31.841Z,81.7
2017-09-10T08:55:31.843Z,82.27
2017-09-10T08:56:32.157Z,82.65
2017-09-10T08:57:31.849Z,81.98
2017-09-10T08:58:31.858Z,81.98
2017-09-10T08:59:31.859Z,82.12
2017-09-10T09:00:32.162Z,80.49
2017-09-10T09:01:32.162Z,79.82
2017-09-10T09:02:31.878Z,79.82
2017-09-10T09:03:32.177Z,80.11
2017-09-10T09:04:31.869Z,80.01
2017-09-10T09:05:32.172Z,81.07
2017-09-10T09:06:32.175Z,80.97
2017-09-10T09:07:31.864Z,79.24
2017-09-10T09:08:32.182Z,78.09
2017-09-10T09:09:32.179Z,79.05
2017-09-10T09:10:32.990Z,80.49
2017-09-10T09:11:31.874Z,81.26
2017-09-10T09:12:32.181Z,81.54
2017-09-10T09:13:31.911Z,81.64
2017-09-10T09:14:32.191Z,80.58
2017-09-10T09:15:32.192Z,79.53
2017-09-10T09:16:31.903Z,80.01
2017-09-10T09:17:32.194Z,79.63
2017-09-10T09:18:31.889Z,80.2
2017-09-10T09:19:32.199Z,79.82
2017-09-10T09:20:32.200Z,80.3
2017-09-10T09:21:32.201Z,80.68
2017-09-10T09:22:32.205Z,80.68
2017-09-10T09:23:31.895Z,78.42
2017-09-10T09:24:31.905Z,79.34
2017-09-10T09:25:32.247Z,77.65
2017-09-10T09:26:32.211Z,77.65
2017-09-10T09:27:32.223Z,76.88
2017-09-10T09:28:31.943Z,76.21
2017-09-10T09:29:32.222Z,76.34
2017-09-10T09:30:32.224Z,75.87
2017-09-10T09:31:31.916Z,74.71
2017-09-10T09:32:31.920Z,75
2017-09-10T09:33:32.231Z,75.13
2017-09-10T09:34:32.230Z,74.08
2017-09-10T09:35:31.929Z,72.83
2017-09-10T09:36:31.988Z,72.83
2017-09-10T09:37:31.955Z,73.02
2017-09-10T09:38:32.245Z,72.06
2017-09-10T09:39:32.248Z,72.19
2017-09-10T09:40:31.945Z,72.34
2017-09-10T09:41:32.258Z,71.58
2017-09-10T09:42:32.260Z,72.19
2017-09-10T09:43:31.962Z,71.71
2017-09-10T09:44:32.264Z,71.61
2017-09-10T09:45:32.266Z,70.84
2017-09-10T09:46:32.269Z,70.56
2017-09-10T09:47:32.269Z,70.94
2017-09-10T09:48:32.277Z,70.37
2017-09-10T09:49:31.970Z,69.92
2017-09-10T09:50:31.972Z,70.01
2017-09-10T09:51:32.280Z,69.44
2017-09-10T09:52:32.301Z,69.44
2017-09-10T09:53:32.289Z,69.06
2017-09-10T09:54:32.291Z,68.86
2017-09-10T09:55:32.296Z,69.06
2017-09-10T09:56:32.298Z,68.86
2017-09-10T09:57:32.305Z,68.76
2017-09-10T09:58:31.999Z,67.93
2017-09-10T09:59:32.002Z,66.49
2017-09-10T10:00:32.319Z,65.72
2017-09-10T10:01:32.361Z,65.81
2017-09-10T10:02:32.324Z,66.3
2017-09-10T10:03:32.334Z,66.49
2017-09-10T10:04:32.029Z,66.24
2017-09-10T10:05:32.025Z,67
2017-09-10T10:06:32.030Z,66.62
2017-09-10T10:07:32.034Z,65.72
2017-09-10T10:08:32.353Z,66.39
2017-09-10T10:09:32.373Z,66.39
2017-09-10T10:10:32.046Z,66.68
2017-09-10T10:11:32.052Z,66.68
2017-09-10T10:12:32.060Z,68.29
2017-09-10T10:13:32.378Z,69.34
2017-09-10T10:14:32.396Z,70.46
2017-09-10T10:15:32.061Z,69.6
2017-09-10T10:16:32.398Z,70.27
2017-09-10T10:17:32.407Z,70.56
2017-09-10T10:18:32.070Z,69.5
2017-09-10T10:19:32.074Z,69.69
2017-09-10T10:20:32.088Z,69.95
2017-09-10T10:21:32.254Z,69.5
2017-09-10T10:22:32.087Z,69.46
2017-09-10T10:23:32.408Z,68.92
2017-09-10T10:24:32.416Z,70.27
2017-09-10T10:25:32.402Z,68.63
2017-09-10T10:26:32.121Z,67.96
2017-09-10T10:27:32.102Z,67.51
2017-09-10T10:28:32.111Z,67.42
2017-09-10T10:29:32.108Z,65.91
2017-09-10T10:30:32.120Z,64.95
2017-09-10T10:31:32.200Z,64.4
2017-09-10T10:32:32.457Z,62.77
2017-09-10T10:33:32.449Z,63.31
2017-09-10T10:34:32.468Z,63.15
2017-09-10T10:35:32.441Z,63.7
2017-09-10T10:36:32.491Z,63.89
2017-09-10T10:37:32.492Z,62.45
2017-09-10T10:38:32.468Z,62.19
2017-09-10T10:39:32.146Z,59.59
2017-09-10T10:40:32.469Z,60.75
2017-09-10T10:41:32.465Z,60.27
2017-09-10T10:42:32.476Z,59.85
2017-09-10T10:43:32.486Z,60.24
2017-09-10T10:44:32.478Z,60.62
2017-09-10T10:45:32.164Z,60.52
2017-09-10T10:46:32.496Z,60.42
2017-09-10T10:47:32.171Z,61.68
2017-09-10T10:48:32.513Z,61.87
2017-09-10T10:49:32.511Z,61.68
2017-09-10T10:50:32.502Z,62.16
2017-09-10T10:51:32.509Z,61.39
2017-09-10T10:52:32.516Z,62.35
2017-09-10T10:53:32.511Z,61.68
2017-09-10T10:54:32.523Z,63.18
2017-09-10T10:55:32.515Z,62.71
2017-09-10T10:56:32.202Z,63.57
2017-09-10T10:57:32.551Z,63.76
2017-09-10T10:58:32.210Z,63.95
2017-09-10T10:59:32.544Z,63.95
2017-09-10T11:00:32.215Z,62.71
2017-09-10T11:01:32.541Z,62.71
2017-09-10T11:02:32.541Z,62.99
2017-09-10T11:03:32.542Z,62.61
2017-09-10T11:04:32.563Z,63.38
2017-09-10T11:05:32.232Z,63.57
2017-09-10T11:06:32.314Z,63.95
2017-09-10T11:07:32.556Z,63.95
2017-09-10T11:08:32.566Z,63.28
2017-09-10T11:09:32.246Z,64.69
2017-09-10T11:10:32.248Z,65.17
2017-09-10T11:11:32.636Z,64.79
2017-09-10T11:12:32.592Z,66.04
2017-09-10T11:13:32.577Z,65.75
2017-09-10T11:14:32.585Z,64.98
2017-09-10T11:15:32.598Z,64.92
2017-09-10T11:16:32.277Z,64.63
2017-09-10T11:17:32.269Z,63.09
2017-09-10T11:18:32.587Z,63.22
2017-09-10T11:19:32.274Z,61.97
2017-09-10T11:20:32.282Z,60.62
2017-09-10T11:21:32.608Z,60.72
2017-09-10T11:22:32.288Z,61.68
2017-09-10T11:23:32.609Z,62.16
2017-09-10T11:24:32.292Z,62.16
2017-09-10T11:25:32.623Z,62.29
2017-09-10T11:26:32.612Z,63.06
2017-09-10T11:27:32.620Z,62.57
2017-09-10T11:28:32.619Z,60.68
2017-09-10T11:29:32.310Z,59.52
2017-09-10T11:30:32.648Z,60.68
2017-09-10T11:31:32.747Z,60.32
2017-09-10T11:32:32.644Z,59.45
2017-09-10T11:33:32.325Z,58.69
2017-09-10T11:34:32.669Z,58.3
2017-09-10T11:35:32.334Z,58.78
2017-09-10T11:36:32.643Z,58.4
2017-09-10T11:37:32.682Z,57.34
2017-09-10T11:38:32.673Z,58.69
2017-09-10T11:39:32.671Z,58.49
2017-09-10T11:40:32.710Z,59.36
2017-09-10T11:41:32.365Z,59.52
2017-09-10T11:42:32.681Z,60
2017-09-10T11:43:32.701Z,59.33
2017-09-10T11:44:32.704Z,59.52
2017-09-10T11:45:32.692Z,59.49
2017-09-10T11:46:32.400Z,60.07
2017-09-10T11:47:32.396Z,60.27
2017-09-10T11:48:32.402Z,60.84
2017-09-10T11:49:32.386Z,60.84
2017-09-10T11:50:32.700Z,60.65
2017-09-10T11:51:32.719Z,61.42
2017-09-10T11:52:32.717Z,61.8
2017-09-10T11:53:32.717Z,62
2017-09-10T11:54:32.731Z,61.77
2017-09-10T11:55:32.409Z,61.19
2017-09-10T11:56:32.802Z,61.77
2017-09-10T11:57:32.727Z,61.29
2017-09-10T11:58:32.434Z,61.97
2017-09-10T11:59:32.425Z,62.35
2017-09-10T12:00:32.433Z,61.77
2017-09-10T12:01:32.750Z,61.8
2017-09-10T12:02:32.440Z,61.8
2017-09-10T12:03:32.440Z,62.83
2017-09-10T12:04:32.452Z,62.54
2017-09-10T12:05:32.452Z,61.87
2017-09-10T12:06:32.538Z,61.97
2017-09-10T12:07:32.769Z,62.06
2017-09-10T12:08:32.773Z,62.16
2017-09-10T12:09:32.776Z,61.39
2017-09-10T12:10:32.480Z,60.65
2017-09-10T12:11:32.784Z,60.75
2017-09-10T12:12:32.486Z,61.71
2017-09-10T12:13:32.808Z,62
2017-09-10T12:14:32.812Z,61.42
2017-09-10T12:15:32.985Z,61.39
2017-09-10T12:16:32.502Z,61.87
2017-09-10T12:17:33.064Z,62.93
2017-09-10T12:18:33.281Z,61.32
2017-09-10T12:19:32.520Z,61.13
2017-09-10T12:20:33.077Z,60.91
2017-09-10T12:21:32.812Z,61.49
2017-09-10T12:22:32.523Z,60.33
2017-09-10T12:23:32.810Z,61.68
2017-09-10T12:24:32.513Z,62.06
2017-09-10T12:25:32.533Z,61.49
2017-09-10T12:26:32.810Z,60.72
2017-09-10T12:27:32.521Z,60.04
2017-09-10T12:28:32.526Z,59.56
2017-09-10T12:29:32.525Z,59.59
2017-09-10T12:30:32.831Z,59.78
2017-09-10T12:31:32.536Z,58.63
2017-09-10T12:32:32.837Z,59.52
2017-09-10T12:33:32.842Z,58.56
2017-09-10T12:34:32.550Z,58.08
2017-09-10T12:35:32.846Z,58.37
2017-09-10T12:36:33.331Z,56.54
2017-09-10T12:37:32.854Z,57.69
2017-09-10T12:38:32.553Z,58.56
2017-09-10T12:39:32.860Z,58.56
2017-09-10T12:40:32.866Z,58.56
2017-09-10T12:41:32.570Z,57.79
2017-09-10T12:42:32.876Z,58.37
2017-09-10T12:43:32.875Z,58.17
2017-09-10T12:44:32.597Z,58.37
2017-09-10T12:45:32.890Z,57.89
2017-09-10T12:46:32.888Z,58.08
2017-09-10T12:47:32.898Z,57.89
2017-09-10T12:48:32.892Z,57.98
2017-09-10T12:49:32.902Z,57.12
2017-09-10T12:50:32.909Z,57.21
2017-09-10T12:51:32.946Z,57.12
2017-09-10T12:52:32.600Z,56.92
2017-09-10T12:53:32.634Z,56.82